Bookmark and Share
Track history (hours):
 

Campbell Foss

More information available from US FCC via Universal Licensing System and Coast Guard Vessel Documentation Center.

Last reported at 2014-Apr-23 23:09 UTC. Time now 2014-Apr-24 04:16 UTC.
Position N 33°46' W 118°13'.

Length 23 m; draft 16 m.

Type: Tug. MMSI: 367076360.

NotesDate/timePositionNaut miles runAvg speedWind from/ knotsBaromVisibWave heightAir tempDewpointWater temp
2014-Apr-23 23:09N 33°46' W 118°13'2 2.8
2014-Apr-23 22:28N 33°44' W 118°12'2 0.0
2014-Apr-22 02:19N 33°46' W 118°13'1 0.4
2014-Apr-22 00:09N 33°46' W 118°14'2 3.6
2014-Apr-21 23:33N 33°45' W 118°12'1 1.2
2014-Apr-21 22:30N 33°45' W 118°13'0 0.4
2014-Apr-21 21:33N 33°45' W 118°13'1 1.0
2014-Apr-21 20:17N 33°44' W 118°13'0 0.0
2014-Apr-21 11:33N 33°44' W 118°12'2 1.8
2014-Apr-21 10:18N 33°46' W 118°14'1 1.9
2014-Apr-21 09:32N 33°45' W 118°13'3 0.9
2014-Apr-21 06:13N 33°44' W 118°17'3 4.0
2014-Apr-21 05:33N 33°44' W 118°13'3 2.3
2014-Apr-21 04:21N 33°46' W 118°16'1 0.6
2014-Apr-21 03:29N 33°45' W 118°16'2 2.3
2014-Apr-21 02:30N 33°43' W 118°16'1 1.3
2014-Apr-21 01:32N 33°42' W 118°15'2 2.3
2014-Apr-21 00:33N 33°44' W 118°14'0 0.0
2014-Apr-20 23:33N 33°44' W 118°14'1 0.9
2014-Apr-20 22:29N 33°43' W 118°14'3 2.9
2014-Apr-20 21:33N 33°45' W 118°17'2 0.1
2014-Apr-19 23:29N 33°44' W 118°14'  
2014-Apr-17 14:29N 33°44' W 118°16'1 0.6
2014-Apr-17 12:27N 33°43' W 118°15'2 0.2
2014-Apr-16 23:12N 33°44' W 118°13'1 0.9
2014-Apr-16 22:29N 33°45' W 118°12'4 0.5
2014-Apr-16 15:03N 33°45' W 118°16'3 0.3
2014-Apr-16 04:18N 33°46' W 118°13'0 0.0
2014-Apr-16 02:08N 33°46' W 118°13'0 0.0
2014-Apr-16 00:10N 33°46' W 118°13'0 0.0
2014-Apr-15 23:18N 33°46' W 118°13'0 0.2
2014-Apr-15 22:33N 33°46' W 118°13'0 0.4
2014-Apr-15 21:33N 33°46' W 118°13'3 3.3
2014-Apr-15 20:33N 33°44' W 118°11'5 0.9
2014-Apr-15 15:22N 33°44' W 118°17'1 0.5
2014-Apr-15 12:32N 33°46' W 118°16'2 0.6
2014-Apr-15 08:34N 33°46' W 118°13'0 0.0
2014-Apr-15 07:32N 33°46' W 118°13'0 0.0
2014-Apr-15 06:30N 33°46' W 118°13'0 0.0
2014-Apr-15 05:34N 33°46' W 118°13'0 0.0
2014-Apr-14 21:32N 33°46' W 118°13'0 0.0
2014-Apr-14 20:31N 33°46' W 118°13'  

Dump ship's entire track history

sailing weather and tide predictions

Campbell Foss — WDC7754 — position and weather